Terminal Aerodrome Forecast
Issued by NWS

Current Version | Previous Version | Text Only | Print | Product List | Glossary Off
Versions: 1 2 3 4 5 6 7 8 9 10 11 12 13 14 15 16 17 18 19 20 21

000
FTUS41 KRLX 080548
TAFCKB
TAF
KCKB 080548Z 0806/0906 00000KT P6SM BKN080
     FM081200 24006KT P6SM BKN060
     FM081600 26009G15KT P6SM BKN090
     FM081700 27009G16KT P6SM SCT040
     FM082000 27009G17KT P6SM BKN040
     FM090300 28009G17KT P6SM BKN025=

USA.gov is the U.S. government's official web portal to all federal, state and local government web resources and services.